Time;durP1;ratioP1;P1;durP2;ratioP2;P2;SDS_P1;SDS_P2;PMS_P1;PMS_P2;Temp;Humidity;BMP_temperature;BMP_pressure;BME280_temperature;BME280_humidity;BME280_pressure;Samples;Min_cycle;Max_cycle;Signal;HPM_P1;HPM_P2
2021/08/02 00:01:19;;;;;;;6.57;5.97;;;18.80;99.90;;;;;;6158083;23;20438;-87
2021/08/02 00:03:51;;;;;;;7.00;6.30;;;18.80;99.90;;;;;;6158448;23;20421;-89
2021/08/02 00:06:23;;;;;;;7.10;6.50;;;18.70;99.90;;;;;;6158559;23;20394;-89
2021/08/02 00:09:02;;;;;;;10.00;6.73;;;18.70;99.90;;;;;;6159168;23;20422;-88
2021/08/02 00:11:34;;;;;;;7.20;6.50;;;18.70;99.90;;;;;;6183228;23;20407;-90
2021/08/02 00:14:04;;;;;;;8.40;7.70;;;18.70;99.90;;;;;;6158789;23;20462;-90
2021/08/02 00:16:34;;;;;;;8.33;6.97;;;18.60;99.90;;;;;;6158394;23;20405;-90
2021/08/02 00:19:04;;;;;;;7.07;6.47;;;18.60;99.90;;;;;;6158066;23;20435;-90
2021/08/02 00:21:31;;;;;;;7.60;6.90;;;18.60;99.90;;;;;;6157610;23;20418;-90
2021/08/02 00:23:58;;;;;;;7.13;6.53;;;18.60;99.90;;;;;;6157808;23;20410;-88
2021/08/02 00:26:27;;;;;;;7.40;6.70;;;18.70;99.90;;;;;;6157860;23;20386;-92
2021/08/02 00:28:55;;;;;;;8.77;7.97;;;18.70;99.90;;;;;;6158149;23;20398;-90
2021/08/02 00:31:22;;;;;;;8.73;7.83;;;18.70;99.90;;;;;;6183188;23;20414;-90
2021/08/02 00:33:49;;;;;;;7.63;6.83;;;18.70;99.90;;;;;;6157160;23;20454;-89
2021/08/02 00:37:03;;;;;;;9.33;8.43;;;18.70;99.90;;;;;;6158024;23;20399;-89
2021/08/02 00:39:56;;;;;;;8.03;7.23;;;18.70;99.90;;;;;;6157656;23;20419;-89
2021/08/02 00:42:48;;;;;;;9.67;8.77;;;18.60;99.90;;;;;;6158216;23;20390;-91
2021/08/02 00:45:36;;;;;;;8.60;7.87;;;18.60;99.90;;;;;;6157941;23;20447;-91
2021/08/02 00:48:05;;;;;;;8.93;8.10;;;18.60;99.90;;;;;;6157942;23;20411;-90
2021/08/02 00:50:47;;;;;;;8.53;7.73;;;18.60;99.90;;;;;;6168787;23;20442;-88
2021/08/02 00:53:21;;;;;;;8.40;7.60;;;18.60;99.90;;;;;;6181552;23;20394;-91
2021/08/02 00:55:59;;;;;;;8.40;7.60;;;18.60;99.90;;;;;;6177631;23;20429;-88
2021/08/02 00:58:31;;;;;;;9.70;8.80;;;18.50;99.90;;;;;;6181958;23;20474;-87
2021/08/02 01:01:12;;;;;;;12.03;9.10;;;18.60;99.90;;;;;;6181796;23;20427;-89
2021/08/02 01:03:41;;;;;;;9.17;7.83;;;18.60;99.90;;;;;;6182485;23;20477;-88
2021/08/02 01:06:11;;;;;;;8.13;7.43;;;18.50;99.90;;;;;;6181757;23;20411;-91
2021/08/02 01:08:40;;;;;;;9.03;8.13;;;18.50;99.90;;;;;;6181583;23;20422;-89
2021/08/02 01:11:11;;;;;;;8.90;8.10;;;18.50;99.90;;;;;;6181427;23;20426;-89
2021/08/02 01:13:39;;;;;;;8.20;7.50;;;18.50;99.90;;;;;;6181740;23;20454;-90
2021/08/02 01:16:08;;;;;;;8.60;7.83;;;18.60;99.90;;;;;;6181798;23;20419;-89
2021/08/02 01:18:38;;;;;;;8.80;8.00;;;18.50;99.90;;;;;;6181695;23;20407;-91
2021/08/02 01:21:11;;;;;;;8.47;7.40;;;18.50;99.90;;;;;;6180573;23;20439;-89
2021/08/02 01:23:40;;;;;;;8.83;7.93;;;18.50;99.90;;;;;;6181732;23;20391;-89
2021/08/02 01:26:25;;;;;;;7.83;7.13;;;18.50;99.90;;;;;;6156525;23;20474;-89
2021/08/02 01:29:30;;;;;;;8.43;7.60;;;18.50;99.90;;;;;;6180642;23;20398;-90
2021/08/02 01:31:59;;;;;;;8.30;7.60;;;18.50;99.90;;;;;;6180680;23;20407;-88
2021/08/02 01:34:26;;;;;;;8.87;7.57;;;18.50;99.90;;;;;;6180367;23;20534;-90
2021/08/02 01:36:53;;;;;;;10.00;9.00;;;18.50;99.90;;;;;;6168271;23;20528;-89
2021/08/02 01:39:22;;;;;;;9.50;8.70;;;18.50;99.90;;;;;;6180128;23;20442;-86
2021/08/02 01:41:49;;;;;;;9.77;8.30;;;18.50;99.90;;;;;;6180698;23;20602;-90
2021/08/02 01:44:19;;;;;;;8.80;7.97;;;18.50;99.90;;;;;;6177642;23;20422;-90
2021/08/02 01:47:16;;;;;;;9.97;9.07;;;18.40;99.90;;;;;;6177849;23;20424;-87
2021/08/02 01:49:54;;;;;;;8.90;8.10;;;18.30;99.90;;;;;;6125915;23;20455;-88
2021/08/02 01:52:27;;;;;;;9.20;8.10;;;18.30;99.90;;;;;;6180749;23;20403;-89
2021/08/02 01:54:59;;;;;;;9.80;8.90;;;18.30;99.90;;;;;;6179198;23;20498;-90
2021/08/02 01:57:26;;;;;;;9.43;8.53;;;18.40;99.90;;;;;;6178288;23;20391;-88
2021/08/02 02:00:00;;;;;;;9.33;8.43;;;18.40;99.90;;;;;;6179070;23;20443;-90
2021/08/02 02:02:29;;;;;;;8.70;7.90;;;18.40;99.90;;;;;;6163042;23;20402;-87
2021/08/02 02:05:05;;;;;;;8.80;8.10;;;18.30;99.90;;;;;;6163445;23;20407;-87
2021/08/02 02:07:42;;;;;;;9.47;8.50;;;18.30;99.90;;;;;;6160835;23;20430;-88
2021/08/02 02:10:11;;;;;;;12.83;8.13;;;18.30;99.90;;;;;;6160224;23;20454;-88
2021/08/02 02:12:41;;;;;;;9.37;8.47;;;18.30;99.90;;;;;;6160434;23;20407;-87
2021/08/02 02:15:09;;;;;;;10.43;8.47;;;18.30;99.90;;;;;;6162120;23;20442;-87
2021/08/02 02:17:37;;;;;;;9.53;8.73;;;18.30;99.90;;;;;;6160771;23;20957;-88
2021/08/02 02:20:06;;;;;;;12.63;9.20;;;18.30;99.90;;;;;;6160540;23;20442;-89
2021/08/02 02:22:37;;;;;;;9.80;8.80;;;18.30;99.90;;;;;;6161117;23;20469;-88
2021/08/02 02:25:07;;;;;;;11.17;10.17;;;18.30;99.90;;;;;;6163657;23;20442;-86
2021/08/02 02:27:38;;;;;;;10.80;9.90;;;18.30;99.90;;;;;;6162464;23;20410;-87
2021/08/02 02:30:10;;;;;;;10.97;9.87;;;18.30;99.90;;;;;;6165317;23;20422;-88
2021/08/02 02:32:39;;;;;;;12.23;9.50;;;18.30;99.90;;;;;;6162812;23;20465;-88
2021/08/02 02:35:08;;;;;;;10.57;9.67;;;18.20;99.90;;;;;;6163995;23;20447;-88
2021/08/02 02:37:52;;;;;;;10.47;9.47;;;18.20;99.90;;;;;;6149940;23;20414;-88
2021/08/02 02:40:20;;;;;;;10.47;9.47;;;18.20;99.90;;;;;;6164750;23;20437;-87
2021/08/02 02:43:01;;;;;;;10.17;8.97;;;18.20;99.90;;;;;;6163005;23;20420;-88
2021/08/02 02:45:29;;;;;;;10.57;9.60;;;18.20;99.90;;;;;;6163073;23;20478;-88
2021/08/02 02:47:57;;;;;;;9.60;8.80;;;18.20;99.90;;;;;;6162665;23;20410;-87
2021/08/02 02:50:25;;;;;;;9.97;9.07;;;18.10;99.90;;;;;;6164814;23;20518;-88
2021/08/02 02:52:53;;;;;;;10.43;9.00;;;18.20;99.90;;;;;;6162677;23;20407;-88
2021/08/02 02:55:23;;;;;;;11.20;9.20;;;18.20;99.90;;;;;;6163875;23;20450;-87
2021/08/02 02:57:50;;;;;;;10.33;9.30;;;18.20;99.90;;;;;;6163774;23;20489;-87
2021/08/02 03:00:17;;;;;;;8.80;8.00;;;18.20;99.90;;;;;;6165107;23;20498;-90
2021/08/02 03:02:46;;;;;;;10.67;8.40;;;18.10;99.90;;;;;;6184078;23;20466;-88
2021/08/02 03:05:13;;;;;;;12.13;8.47;;;18.20;99.90;;;;;;6183662;23;20411;-88
2021/08/02 03:07:41;;;;;;;9.67;8.77;;;18.10;99.90;;;;;;6182440;23;20425;-90
2021/08/02 03:10:15;;;;;;;9.23;8.40;;;18.10;99.90;;;;;;6183419;23;20430;-90
2021/08/02 03:12:42;;;;;;;9.70;8.27;;;18.10;99.90;;;;;;6183301;23;20412;-90
2021/08/02 03:15:11;;;;;;;8.57;7.80;;;18.10;99.90;;;;;;6182717;23;20445;-88
2021/08/02 03:17:38;;;;;;;9.10;8.20;;;18.20;99.90;;;;;;6181243;23;20411;-89
2021/08/02 03:20:06;;;;;;;9.30;8.40;;;18.20;99.90;;;;;;6181009;23;20431;-90
2021/08/02 03:22:39;;;;;;;8.40;7.60;;;18.20;99.90;;;;;;6173817;23;20548;-88
2021/08/02 03:25:26;;;;;;;9.80;8.83;;;18.20;99.90;;;;;;6163437;23;20422;-88
2021/08/02 03:28:13;;;;;;;8.90;8.10;;;18.10;99.90;;;;;;6166979;23;20949;-87
2021/08/02 03:30:43;;;;;;;9.17;8.20;;;18.10;99.90;;;;;;6170109;23;20498;-88
2021/08/02 03:33:24;;;;;;;8.83;7.93;;;18.10;99.90;;;;;;6171871;23;20477;-87
2021/08/02 03:35:53;;;;;;;8.60;7.77;;;18.10;99.90;;;;;;6163639;23;20466;-87
2021/08/02 03:38:25;;;;;;;8.70;7.80;;;18.10;99.90;;;;;;6164122;23;20415;-88
2021/08/02 03:40:55;;;;;;;8.10;7.30;;;18.00;99.90;;;;;;6162938;23;20442;-86
2021/08/02 03:43:23;;;;;;;8.57;7.67;;;17.90;99.90;;;;;;6162629;23;20421;-86
2021/08/02 03:45:51;;;;;;;10.37;7.17;;;17.90;99.90;;;;;;6164645;23;20433;-89
2021/08/02 03:48:20;;;;;;;10.40;7.60;;;18.00;99.90;;;;;;6164575;23;20421;-86
2021/08/02 03:50:47;;;;;;;7.93;6.80;;;18.00;99.90;;;;;;6164305;23;20442;-90
2021/08/02 03:53:14;;;;;;;7.97;7.20;;;18.00;99.90;;;;;;6162755;23;20415;-86
2021/08/02 03:55:45;;;;;;;8.60;7.80;;;18.00;99.90;;;;;;6163991;23;20446;-88
2021/08/02 03:58:14;;;;;;;8.20;7.40;;;18.00;99.90;;;;;;6164366;23;20474;-87
2021/08/02 04:00:41;;;;;;;7.33;6.50;;;18.00;99.90;;;;;;6165236;23;20462;-89
2021/08/02 04:03:10;;;;;;;8.47;6.87;;;18.00;99.90;;;;;;6167034;23;20473;-87
2021/08/02 04:05:37;;;;;;;7.77;6.93;;;17.90;99.90;;;;;;6165950;23;20429;-87
2021/08/02 04:08:04;;;;;;;8.20;6.93;;;17.80;99.90;;;;;;6164902;23;20439;-87
2021/08/02 04:10:31;;;;;;;7.67;6.87;;;17.80;99.90;;;;;;6166132;23;20525;-88
2021/08/02 04:12:58;;;;;;;7.90;7.10;;;17.90;99.90;;;;;;6166972;23;20407;-87
2021/08/02 04:15:28;;;;;;;7.60;6.80;;;17.90;99.90;;;;;;6166173;23;20451;-87
2021/08/02 04:17:56;;;;;;;7.43;6.83;;;17.80;99.90;;;;;;6166108;23;20478;-88
2021/08/02 04:20:23;;;;;;;10.60;7.43;;;17.80;99.90;;;;;;6168709;23;20495;-87
2021/08/02 04:22:51;;;;;;;7.20;6.50;;;17.90;99.90;;;;;;6167213;23;20490;-87
2021/08/02 04:25:18;;;;;;;7.77;7.03;;;17.90;99.90;;;;;;6170129;23;20410;-87
2021/08/02 04:27:45;;;;;;;12.80;7.57;;;17.90;99.90;;;;;;6175123;23;20482;-89
2021/08/02 04:30:12;;;;;;;8.23;6.87;;;17.80;99.90;;;;;;6174095;23;20431;-88
2021/08/02 04:32:45;;;;;;;7.60;6.90;;;17.90;99.90;;;;;;6164990;23;20519;-88
2021/08/02 04:35:12;;;;;;;8.93;7.13;;;17.80;99.90;;;;;;6163249;23;20463;-87
2021/08/02 04:37:39;;;;;;;9.50;6.93;;;17.90;99.90;;;;;;6161998;23;20490;-87
2021/08/02 04:40:07;;;;;;;11.93;7.30;;;17.80;99.90;;;;;;6163103;23;20601;-86
2021/08/02 04:42:37;;;;;;;6.63;5.93;;;17.70;99.90;;;;;;6161848;23;20421;-85
2021/08/02 04:45:06;;;;;;;9.73;7.00;;;17.70;99.90;;;;;;6161713;23;20598;-87
2021/08/02 04:47:33;;;;;;;7.50;6.80;;;17.80;99.90;;;;;;6166065;23;20384;-87
2021/08/02 04:50:00;;;;;;;9.03;6.43;;;17.80;99.90;;;;;;6166461;23;20427;-87
2021/08/02 04:52:29;;;;;;;8.23;6.40;;;17.80;99.90;;;;;;6176891;23;20426;-87
2021/08/02 04:54:57;;;;;;;6.70;6.10;;;17.80;99.90;;;;;;6181332;23;20453;-89
2021/08/02 04:57:24;;;;;;;8.13;7.20;;;17.70;99.90;;;;;;6173899;23;20407;-88
2021/08/02 04:59:50;;;;;;;7.53;6.40;;;17.80;99.90;;;;;;6168310;23;20455;-88
2021/08/02 05:02:17;;;;;;;7.80;6.87;;;17.80;99.90;;;;;;6165904;23;20410;-89
2021/08/02 05:04:44;;;;;;;8.80;7.30;;;17.80;99.90;;;;;;6165660;23;20486;-87
2021/08/02 05:07:11;;;;;;;6.50;5.90;;;17.90;99.90;;;;;;6164369;23;20474;-87
2021/08/02 05:09:38;;;;;;;10.60;7.73;;;17.80;99.90;;;;;;6166930;23;20459;-89
2021/08/02 05:12:06;;;;;;;7.60;7.00;;;17.80;99.90;;;;;;6166944;23;20427;-88
2021/08/02 05:14:33;;;;;;;10.07;7.10;;;17.90;99.90;;;;;;6165522;23;20479;-87
2021/08/02 05:17:00;;;;;;;7.60;6.60;;;17.90;99.90;;;;;;6166166;23;20435;-87
2021/08/02 05:19:27;;;;;;;7.07;6.47;;;17.90;99.90;;;;;;6180870;23;20439;-87
2021/08/02 05:21:54;;;;;;;7.13;6.43;;;18.00;99.90;;;;;;6168753;23;20411;-85
2021/08/02 05:24:21;;;;;;;8.00;6.40;;;18.00;99.90;;;;;;6168995;23;20481;-89
2021/08/02 05:26:49;;;;;;;9.60;6.97;;;18.10;99.90;;;;;;6182301;23;20403;-87
2021/08/02 05:29:17;;;;;;;8.03;6.00;;;18.20;99.90;;;;;;6182740;23;20429;-88
2021/08/02 05:31:44;;;;;;;11.70;6.90;;;18.20;99.90;;;;;;6182701;23;20407;-90
2021/08/02 05:34:12;;;;;;;7.73;5.97;;;18.20;99.90;;;;;;6182412;23;20395;-89
2021/08/02 05:36:41;;;;;;;9.10;6.90;;;18.20;99.90;;;;;;6181974;23;20434;-89
2021/08/02 05:39:09;;;;;;;8.73;6.93;;;18.80;99.90;;;;;;6180605;23;20399;-88
2021/08/02 05:41:37;;;;;;;9.67;6.53;;;18.90;99.90;;;;;;6181300;23;20545;-89
2021/08/02 05:44:04;;;;;;;9.10;6.80;;;18.60;99.90;;;;;;6179175;23;20402;-89
2021/08/02 05:46:31;;;;;;;7.50;6.80;;;18.70;99.90;;;;;;6176927;23;20433;-89
2021/08/02 05:48:58;;;;;;;7.07;5.90;;;18.70;99.90;;;;;;6172960;23;20407;-88
2021/08/02 05:51:24;;;;;;;7.23;6.53;;;18.40;99.90;;;;;;6170241;23;20419;-87
2021/08/02 05:53:51;;;;;;;11.23;7.33;;;18.30;99.90;;;;;;6168983;23;20479;-88
2021/08/02 05:56:18;;;;;;;7.70;6.97;;;18.30;99.90;;;;;;6168541;23;20450;-87
2021/08/02 05:58:47;;;;;;;6.73;5.97;;;18.20;99.90;;;;;;6177052;23;20438;-86
2021/08/02 06:01:14;;;;;;;7.93;6.73;;;18.20;99.90;;;;;;6177191;23;20462;-89
2021/08/02 06:03:43;;;;;;;8.80;6.73;;;18.20;99.90;;;;;;6177207;23;20453;-87
2021/08/02 06:06:10;;;;;;;8.37;7.40;;;18.40;99.90;;;;;;6173720;23;20477;-89
2021/08/02 06:08:39;;;;;;;8.60;7.57;;;18.30;99.90;;;;;;6164734;23;20446;-87
2021/08/02 06:11:07;;;;;;;11.30;8.10;;;18.30;99.90;;;;;;6164516;23;20430;-86
2021/08/02 06:13:34;;;;;;;8.93;8.13;;;18.20;99.90;;;;;;6163218;23;20442;-87
2021/08/02 06:16:01;;;;;;;8.00;7.20;;;18.30;99.90;;;;;;6161946;23;20509;-87
2021/08/02 06:18:28;;;;;;;10.70;9.70;;;18.30;99.90;;;;;;6164609;23;20434;-86
2021/08/02 06:20:55;;;;;;;8.83;8.03;;;18.30;99.90;;;;;;6162609;23;20518;-87
2021/08/02 06:23:22;;;;;;;9.63;8.73;;;18.30;99.90;;;;;;6163171;23;20405;-87
2021/08/02 06:25:49;;;;;;;9.27;7.27;;;18.30;99.90;;;;;;6160138;23;20449;-87
2021/08/02 06:28:16;;;;;;;8.10;7.30;;;18.30;99.90;;;;;;6162410;23;20418;-87
2021/08/02 06:30:44;;;;;;;9.77;7.70;;;18.30;99.90;;;;;;6161148;23;20435;-87
2021/08/02 06:33:11;;;;;;;10.97;6.87;;;18.30;99.90;;;;;;6164825;23;20421;-87
2021/08/02 06:35:38;;;;;;;12.80;6.93;;;18.30;99.90;;;;;;6164670;23;20473;-89
2021/08/02 06:38:06;;;;;;;7.67;6.97;;;18.30;99.90;;;;;;6163502;23;20446;-87
2021/08/02 06:40:34;;;;;;;9.30;8.40;;;18.30;99.90;;;;;;6165550;23;20431;-87
2021/08/02 06:43:04;;;;;;;12.63;8.73;;;18.30;99.90;;;;;;6163841;23;20435;-87
2021/08/02 06:45:33;;;;;;;10.27;9.27;;;18.30;99.90;;;;;;6164207;23;20418;-88
2021/08/02 06:48:00;;;;;;;10.90;8.30;;;18.40;99.90;;;;;;6164077;23;20414;-87
2021/08/02 06:50:27;;;;;;;9.90;8.90;;;18.40;99.90;;;;;;6165670;23;20466;-88
2021/08/02 06:52:57;;;;;;;10.67;8.47;;;18.40;99.90;;;;;;6164834;23;20411;-88
2021/08/02 06:55:24;;;;;;;11.67;8.90;;;18.30;99.90;;;;;;6165395;23;20418;-88
2021/08/02 06:57:52;;;;;;;12.27;9.83;;;18.20;99.90;;;;;;6164065;23;20589;-86
2021/08/02 07:00:22;;;;;;;11.23;10.13;;;18.20;99.90;;;;;;6163572;23;20431;-87
2021/08/02 07:02:49;;;;;;;12.80;10.70;;;18.40;99.90;;;;;;6163743;23;20411;-87
2021/08/02 07:05:16;;;;;;;9.10;8.20;;;18.40;99.90;;;;;;6165770;23;20418;-89
2021/08/02 07:07:43;;;;;;;9.47;8.50;;;18.40;99.90;;;;;;6163663;23;20414;-88
2021/08/02 07:10:11;;;;;;;9.40;8.50;;;18.40;99.90;;;;;;6172120;23;20447;-89
2021/08/02 07:12:37;;;;;;;9.87;8.50;;;18.40;99.90;;;;;;6168554;23;20418;-90
2021/08/02 07:15:06;;;;;;;9.43;8.43;;;18.40;99.90;;;;;;6168788;23;20473;-87
2021/08/02 07:17:32;;;;;;;10.40;8.97;;;18.30;99.90;;;;;;6170150;23;20443;-87
2021/08/02 07:19:59;;;;;;;10.30;9.40;;;18.30;99.90;;;;;;6176386;23;20426;-89
2021/08/02 07:22:26;;;;;;;11.43;8.20;;;18.30;99.90;;;;;;6181899;23;20402;-90
2021/08/02 07:24:54;;;;;;;9.57;8.70;;;18.30;99.90;;;;;;6182713;23;20410;-89
2021/08/02 07:27:21;;;;;;;7.93;7.23;;;18.40;99.90;;;;;;6182909;23;20402;-88
2021/08/02 07:29:48;;;;;;;9.10;8.20;;;18.40;99.90;;;;;;6176366;23;20494;-87
2021/08/02 07:32:15;;;;;;;9.33;7.90;;;18.40;99.90;;;;;;6170743;23;20418;-87
2021/08/02 07:34:44;;;;;;;9.53;8.63;;;18.40;99.90;;;;;;6166807;23;20414;-88
2021/08/02 07:37:11;;;;;;;9.23;7.60;;;18.40;99.90;;;;;;6166357;23;20481;-89
2021/08/02 07:39:38;;;;;;;9.57;8.67;;;18.80;99.90;;;;;;6165017;23;20815;-88
2021/08/02 07:42:05;;;;;;;11.20;7.93;;;19.20;99.90;;;;;;6166620;23;20423;-87
2021/08/02 07:44:33;;;;;;;8.63;7.83;;;19.00;99.90;;;;;;6169696;23;20438;-87
2021/08/02 07:47:00;;;;;;;10.20;9.20;;;18.70;99.90;;;;;;6170393;23;20493;-88
2021/08/02 07:49:28;;;;;;;9.00;8.10;;;18.60;99.90;;;;;;6169056;23;20454;-87
2021/08/02 07:51:55;;;;;;;10.40;8.40;;;18.40;99.90;;;;;;6173171;23;20414;-87
2021/08/02 07:54:23;;;;;;;40.17;35.00;;;18.40;99.90;;;;;;6177150;23;20405;-87
2021/08/02 07:56:50;;;;;;;10.70;8.10;;;18.30;99.90;;;;;;6177206;23;20430;-90
2021/08/02 07:59:18;;;;;;;8.70;7.80;;;18.40;99.90;;;;;;6178595;23;20441;-88
2021/08/02 08:01:50;;;;;;;9.27;8.30;;;18.80;99.90;;;;;;6176939;23;20407;-88
2021/08/02 08:04:27;;;;;;;8.50;7.70;;;18.60;99.90;;;;;;6169504;23;20410;-87
2021/08/02 08:06:54;;;;;;;41.57;34.20;;;18.70;99.90;;;;;;6180067;23;20399;-89
2021/08/02 08:09:21;;;;;;;9.33;8.23;;;18.80;99.90;;;;;;6181759;23;20427;-89
2021/08/02 08:11:48;;;;;;;9.00;8.10;;;18.90;99.90;;;;;;6181628;23;20457;-88
2021/08/02 08:14:15;;;;;;;13.07;8.57;;;19.20;99.90;;;;;;6182901;23;20427;-88
2021/08/02 08:16:42;;;;;;;9.50;8.60;;;19.30;99.90;;;;;;6182842;23;20438;-87
2021/08/02 08:19:09;;;;;;;12.50;8.37;;;19.00;99.90;;;;;;6182070;23;20434;-89
2021/08/02 08:21:38;;;;;;;11.23;8.43;;;19.10;99.90;;;;;;6181698;23;20391;-87
2021/08/02 08:24:05;;;;;;;9.23;7.83;;;19.20;99.90;;;;;;6183977;23;20478;-89
2021/08/02 08:26:41;;;;;;;8.40;7.50;;;19.20;99.90;;;;;;6178913;23;20511;-90
2021/08/02 08:29:17;;;;;;;14.43;9.20;;;18.90;99.90;;;;;;6172929;23;20418;-89
2021/08/02 08:32:10;;;;;;;8.47;7.57;;;18.80;99.90;;;;;;6176741;23;20434;-89
2021/08/02 08:34:59;;;;;;;8.30;6.33;;;18.60;99.90;;;;;;6175386;23;20438;-89
2021/08/02 08:37:42;;;;;;;7.07;6.37;;;18.50;99.90;;;;;;6172314;23;20446;-89
2021/08/02 08:40:14;;;;;;;8.60;6.50;;;18.30;99.90;;;;;;6168877;23;20426;-87
2021/08/02 08:42:51;;;;;;;7.20;5.27;;;18.40;99.90;;;;;;6169318;23;20406;-87
2021/08/02 08:45:29;;;;;;;6.23;5.73;;;18.70;99.90;;;;;;6170869;23;20429;-89
2021/08/02 08:47:59;;;;;;;8.30;5.63;;;18.60;99.90;;;;;;6169876;23;20671;-87
2021/08/02 08:50:29;;;;;;;11.77;5.50;;;18.50;99.90;;;;;;6169617;23;20435;-87
2021/08/02 08:52:57;;;;;;;7.00;5.50;;;18.70;99.90;;;;;;6167102;23;20442;-87
2021/08/02 08:55:24;;;;;;;7.03;5.97;;;18.70;99.90;;;;;;6168412;23;20797;-90
2021/08/02 08:57:51;;;;;;;8.47;6.30;;;18.60;99.90;;;;;;6166295;23;20442;-87
2021/08/02 09:00:23;;;;;;;6.93;6.23;;;18.60;99.90;;;;;;6172714;23;20498;-87
2021/08/02 09:02:53;;;;;;;6.40;5.70;;;18.50;99.90;;;;;;6167821;23;20445;-87
2021/08/02 09:05:40;;;;;;;9.13;5.87;;;18.60;99.90;;;;;;6166200;23;20430;-89
2021/08/02 09:08:13;;;;;;;6.97;5.50;;;18.60;99.90;;;;;;6171833;23;20461;-88
2021/08/02 09:10:40;;;;;;;7.30;4.90;;;18.60;99.90;;;;;;6170082;23;20465;-89
2021/08/02 09:13:10;;;;;;;6.47;4.57;;;18.60;99.90;;;;;;6166780;23;20469;-89
2021/08/02 09:15:44;;;;;;;7.73;4.47;;;18.60;99.90;;;;;;6166042;23;20407;-88
2021/08/02 09:18:21;;;;;;;9.00;5.73;;;18.60;99.90;;;;;;6166500;23;20414;-90
2021/08/02 09:21:07;;;;;;;7.30;4.43;;;18.70;99.90;;;;;;6166695;23;20454;-89
2021/08/02 09:23:53;;;;;;;6.40;4.00;;;18.60;99.90;;;;;;6165910;23;20406;-89
2021/08/02 09:26:36;;;;;;;4.93;3.30;;;18.70;99.90;;;;;;6165721;23;20403;-88
2021/08/02 09:29:04;;;;;;;5.73;4.00;;;18.60;99.90;;;;;;6165738;23;20441;-87
2021/08/02 09:31:36;;;;;;;4.87;3.20;;;18.40;99.90;;;;;;6166578;23;20395;-87
2021/08/02 09:34:08;;;;;;;6.03;3.10;;;18.80;99.90;;;;;;6168090;23;20490;-87
2021/08/02 09:36:55;;;;;;;5.67;3.00;;;19.70;99.90;;;;;;6165295;23;20448;-88
2021/08/02 09:39:26;;;;;;;6.80;3.50;;;20.00;99.90;;;;;;6165561;23;20509;-88
2021/08/02 09:42:04;;;;;;;7.77;3.60;;;19.90;99.90;;;;;;6165299;23;20414;-89
2021/08/02 09:44:36;;;;;;;5.53;3.60;;;20.20;99.90;;;;;;6164027;23;20406;-89
2021/08/02 09:47:08;;;;;;;4.17;3.77;;;21.30;98.30;;;;;;6163795;23;20667;-88
2021/08/02 09:49:47;;;;;;;6.67;4.57;;;22.20;96.60;;;;;;6165868;23;20449;-88
2021/08/02 09:52:15;;;;;;;9.80;3.63;;;23.10;94.80;;;;;;6165433;23;20422;-88
2021/08/02 09:54:42;;;;;;;7.30;3.57;;;22.70;94.00;;;;;;6165642;23;20966;-87
2021/08/02 09:57:09;;;;;;;4.67;4.17;;;22.00;94.00;;;;;;6163273;23;20519;-87
2021/08/02 09:59:41;;;;;;;3.90;3.60;;;21.70;94.60;;;;;;6163965;23;20437;-88
2021/08/02 10:02:08;;;;;;;5.57;4.50;;;21.40;95.10;;;;;;6162310;23;20417;-86
2021/08/02 10:04:35;;;;;;;4.97;4.13;;;21.20;95.00;;;;;;6162070;23;20462;-86
2021/08/02 10:07:07;;;;;;;5.00;3.80;;;21.10;94.60;;;;;;6162585;23;20453;-86
2021/08/02 10:09:37;;;;;;;5.10;3.70;;;21.30;94.10;;;;;;6160087;23;20449;-87
2021/08/02 10:12:04;;;;;;;6.40;3.70;;;21.60;93.70;;;;;;6160912;23;20497;-88
2021/08/02 10:14:33;;;;;;;6.60;4.30;;;22.30;92.30;;;;;;6162145;23;20463;-86
2021/08/02 10:17:10;;;;;;;6.30;3.57;;;23.50;89.90;;;;;;6159144;23;20439;-86
2021/08/02 10:19:41;;;;;;;3.60;3.13;;;23.00;89.10;;;;;;6162431;23;20422;-87
2021/08/02 10:22:09;;;;;;;4.13;3.77;;;22.60;90.50;;;;;;6177629;23;20411;-88
2021/08/02 10:24:47;;;;;;;4.40;3.03;;;22.40;90.50;;;;;;6180712;23;20398;-87
2021/08/02 10:27:24;;;;;;;6.17;4.23;;;22.30;90.10;;;;;;6180042;23;20441;-87
2021/08/02 10:29:56;;;;;;;6.87;3.93;;;21.70;90.70;;;;;;6180805;23;20458;-88
2021/08/02 10:32:26;;;;;;;4.77;4.30;;;21.20;91.30;;;;;;6179655;23;20438;-89
2021/08/02 10:34:56;;;;;;;4.30;3.93;;;20.90;92.70;;;;;;6176783;23;20410;-86
2021/08/02 10:37:34;;;;;;;5.30;3.80;;;21.30;92.80;;;;;;6165069;23;20513;-87
2021/08/02 10:40:11;;;;;;;5.70;3.77;;;21.40;91.80;;;;;;6142587;23;20416;-87
2021/08/02 10:42:46;;;;;;;4.00;3.40;;;21.30;92.70;;;;;;6138543;23;20961;-87
2021/08/02 10:45:29;;;;;;;4.30;3.80;;;21.40;92.70;;;;;;6166438;23;20509;-87
2021/08/02 10:47:56;;;;;;;5.17;3.30;;;21.50;92.60;;;;;;6138234;23;20418;-87
2021/08/02 10:50:31;;;;;;;3.83;3.17;;;21.30;92.30;;;;;;6139032;23;20490;-88
2021/08/02 10:52:58;;;;;;;4.93;3.03;;;21.20;92.60;;;;;;6165895;23;20422;-87
2021/08/02 10:55:26;;;;;;;4.30;2.80;;;21.20;92.40;;;;;;6167253;23;20417;-87
2021/08/02 10:58:00;;;;;;;5.73;3.70;;;21.40;92.40;;;;;;6139122;23;20533;-88
2021/08/02 11:00:28;;;;;;;5.57;4.03;;;21.40;91.90;;;;;;6141300;23;20542;-87
2021/08/02 11:02:57;;;;;;;6.47;3.80;;;21.80;91.50;;;;;;6141152;23;20433;-87
2021/08/02 11:05:31;;;;;;;4.83;4.37;;;21.90;91.10;;;;;;6166864;23;20414;-88
2021/08/02 11:08:05;;;;;;;7.23;4.40;;;21.80;91.00;;;;;;6139944;23;20407;-88
2021/08/02 11:10:52;;;;;;;6.23;3.77;;;21.80;91.60;;;;;;6140102;23;20442;-87
2021/08/02 11:13:26;;;;;;;5.67;3.50;;;21.70;91.60;;;;;;6139318;23;20454;-87
2021/08/02 11:15:54;;;;;;;3.93;3.10;;;21.30;90.80;;;;;;6138071;23;20403;-88
2021/08/02 11:18:28;;;;;;;4.67;3.57;;;21.10;91.50;;;;;;6137437;23;20443;-87
2021/08/02 11:20:57;;;;;;;4.33;3.33;;;21.20;91.80;;;;;;6164235;23;20918;-88
2021/08/02 11:23:36;;;;;;;6.47;3.33;;;21.30;91.30;;;;;;6141766;23;20409;-87
2021/08/02 11:26:08;;;;;;;3.60;3.00;;;21.50;91.30;;;;;;6165011;23;20434;-87
2021/08/02 11:28:40;;;;;;;3.40;3.10;;;21.30;91.30;;;;;;6156473;23;20455;-88
2021/08/02 11:31:10;;;;;;;2.73;2.47;;;21.40;91.80;;;;;;6181874;23;20430;-90
2021/08/02 11:33:41;;;;;;;3.87;3.57;;;21.50;92.50;;;;;;6149300;23;20426;-87
2021/08/02 11:36:20;;;;;;;3.67;2.30;;;21.50;91.70;;;;;;6142391;23;20422;-87
2021/08/02 11:38:49;;;;;;;2.23;1.87;;;21.40;91.10;;;;;;6159534;23;20513;-86
2021/08/02 11:41:27;;;;;;;3.17;2.73;;;21.30;91.30;;;;;;6164434;23;20431;-88
2021/08/02 11:43:54;;;;;;;3.60;2.40;;;21.40;91.60;;;;;;6169796;23;20410;-90
2021/08/02 11:46:25;;;;;;;5.00;2.60;;;21.40;90.40;;;;;;6179594;23;20391;-88
2021/08/02 11:48:52;;;;;;;2.53;2.30;;;21.40;89.80;;;;;;6182623;23;20409;-87
2021/08/02 11:51:21;;;;;;;4.47;2.50;;;21.40;88.80;;;;;;6181405;23;20442;-87
2021/08/02 11:53:48;;;;;;;4.20;3.17;;;21.10;88.60;;;;;;6182430;23;20478;-86
2021/08/02 11:56:15;;;;;;;3.60;2.97;;;20.90;88.60;;;;;;6166337;23;20415;-86
2021/08/02 11:58:46;;;;;;;4.83;3.20;;;20.80;89.40;;;;;;6164872;23;20446;-87
2021/08/02 12:01:19;;;;;;;2.80;2.20;;;20.60;90.00;;;;;;6163705;23;20771;-86
2021/08/02 12:03:58;;;;;;;5.17;2.90;;;20.60;89.80;;;;;;6165743;23;20441;-86
2021/08/02 12:06:27;;;;;;;2.20;2.00;;;20.70;90.00;;;;;;6162354;23;20407;-85
2021/08/02 12:08:55;;;;;;;4.37;2.40;;;20.80;90.50;;;;;;6165023;23;20481;-87
2021/08/02 12:15:50;;;;;;;4.47;2.90;;;22.10;86.80;;;;;;6046236;23;20403;-87
2021/08/02 12:18:58;;;;;;;4.37;3.00;;;22.50;85.30;;;;;;6020094;23;20446;-87
2021/08/02 12:21:42;;;;;;;2.50;2.30;;;22.40;84.30;;;;;;6003979;23;20447;-86
2021/08/02 12:24:37;;;;;;;2.93;2.70;;;22.10;86.10;;;;;;6022384;23;20433;-88
2021/08/02 12:27:32;;;;;;;3.23;2.80;;;21.90;85.50;;;;;;6043794;23;20429;-86
2021/08/02 12:30:36;;;;;;;;;;;;;;;;;;;;;
2021/08/02 12:33:36;;;;;;;4.43;4.03;;;22.30;88.50;;;;;;6030719;23;20493;-88
2021/08/02 12:36:47;;;;;;;3.80;3.30;;;23.10;84.90;;;;;;6025838;23;20497;-88
2021/08/02 12:39:30;;;;;;;3.90;3.50;;;22.70;84.60;;;;;;6126707;23;20463;-87
2021/08/02 12:42:11;;;;;;;3.20;2.87;;;22.70;84.80;;;;;;6142203;23;20952;-89
2021/08/02 12:45:03;;;;;;;5.00;3.00;;;22.90;85.30;;;;;;6145120;23;20461;-88
2021/08/02 12:51:39;;;;;;;3.10;2.80;;;23.20;83.40;;;;;;6103261;23;20501;-87
2021/08/02 12:54:43;;;;;;;3.70;3.13;;;23.20;84.60;;;;;;6142877;23;20421;-88
2021/08/02 12:57:41;;;;;;;3.60;3.23;;;23.20;84.60;;;;;;6138626;23;20926;-88
2021/08/02 13:00:38;;;;;;;3.93;3.10;;;23.30;84.70;;;;;;6165294;23;20451;-87
2021/08/02 13:03:28;;;;;;;3.53;3.20;;;23.40;85.20;;;;;;6140290;23;20438;-88
2021/08/02 13:05:57;;;;;;;3.80;3.50;;;23.90;84.20;;;;;;6163520;23;20888;-87
2021/08/02 13:08:24;;;;;;;3.93;3.30;;;24.90;80.90;;;;;;6164813;23;20429;-87
2021/08/02 13:10:53;;;;;;;3.93;3.40;;;25.20;77.60;;;;;;6138381;23;20431;-87
2021/08/02 13:13:20;;;;;;;3.70;3.03;;;24.60;79.30;;;;;;6164695;23;20426;-87
2021/08/02 13:15:52;;;;;;;5.37;3.80;;;24.10;82.00;;;;;;6176974;23;20500;-87
2021/08/02 13:18:21;;;;;;;3.47;3.13;;;23.70;82.30;;;;;;6150593;23;20530;-87